Home > Products > Valid Products > MTR

000
SAUS44 KLIX 270652
MTRBVE
METAR KBVE 270651Z AUTO 02012G20KT 10SM FEW030 08/03 A3024 RMK AO2
SLP241 T00830028





000
SAUS44 KLIX 270552
MTRBVE
METAR KBVE 270551Z AUTO 02010G16KT 330V040 10SM CLR 09/02 A3023 RMK
AO2 SLP237 T00890022 10094 20083 400940050 50010





000
SAUS44 KLIX 270452
MTRBVE
METAR KBVE 270451Z AUTO 01008G18KT 330V040 10SM CLR 09/02 A3023 RMK
AO2 SLP237 T00940022





000
SAUS44 KLIX 270352
MTRBVE
METAR KBVE 270351Z AUTO 01009G15KT 10SM CLR 09/02 A3022 RMK AO2
SLP234 T00890022





000
SAUS44 KLIX 270252
MTRBVE
METAR KBVE 270251Z AUTO 01009G16KT 10SM CLR 09/02 A3020 RMK AO2
SLP227 T00890022 53025





000
SAUS44 KLIX 270201
MTRBVE
SPECI KBVE 270201Z AUTO 01007G16KT 10SM SCT029 09/03 A3018 RMK AO2
T00890033





000
SAUS44 KLIX 270152
MTRBVE
METAR KBVE 270151Z AUTO 01007KT 10SM BKN029 09/03 A3018 RMK AO2
SLP218 T00890033





000
SAUS44 KLIX 270140
MTRBVE
SPECI KBVE 270139Z AUTO 01008KT 330V030 10SM BKN029 09/03 A3017 RMK
AO2 T00890033





000
SAUS44 KLIX 270052
MTRBVE
METAR KBVE 270051Z AUTO VRB06KT 10SM CLR 08/04 A3015 RMK AO2 SLP209
T00830039





000
SAUS44 KLIX 262356 COR
MTRBVE
METAR KBVE 262351Z AUTO 01005KT 10SM FEW021 08/03 A3013 RMK AO2
SLP202 T00830033 10083 20056 51013





000
SAUS44 KLIX 262353 COR
MTRBVE
METAR KBVE 262351Z AUTO 01005KT 10SM FEW021 08/03 A3013 RMK AO2
SLP202 T00830033 10083 20056 51013





000
SAUS44 KLIX 262353 COR
MTRBVE
METAR KBVE 262351Z AUTO 01005KT 10SM FEW021 08/03 A3013 RMK AO2
SLP202 T00830033 10083 20056 51013





000
SAUS44 KLIX 262351
MTRBVE
SPECI KBVE 262349Z AUTO VRB06KT 10SM SCT021 08/03 A3013 RMK AO2





000
SAUS44 KLIX 262351
MTRBVE
SPECI KBVE 262349Z AUTO VRB06KT 10SM SCT021 08/03 A3013 RMK AO2





000
SAUS44 KLIX 262255 COR
MTRBVE
METAR KBVE 262251Z AUTO 01007KT 10SM OVC023 08/04 A3010 RMK AO2
SLP194 T00830039





000
SAUS44 KLIX 262255 COR
MTRBVE
METAR KBVE 262251Z AUTO 01007KT 10SM OVC023 08/04 A3010 RMK AO2
SLP194 T00830039





000
SAUS44 KLIX 262253 COR
MTRBVE
METAR KBVE 262251Z AUTO 01007KT 10SM OVC023 08/04 A3010 RMK AO2
SLP194 T00830039





000
SAUS44 KLIX 262252
MTRBVE
METAR KBVE 262251Z AUTO 01007KT 10SM OVC023 08/04 A3010 RMK AO2
SLP194 T00830039





000
SAUS44 KLIX 262056 COR
MTRBVE
METAR KBVE 262051Z AUTO 35008G15KT 330V030 10SM OVC017 08/03 A3007
RMK AO2 SLP182 T00780033 50004





000
SAUS44 KLIX 262053 COR
MTRBVE
METAR KBVE 262051Z AUTO 35008G15KT 330V030 10SM OVC017 08/03 A3007
RMK AO2 SLP182 T00780033 50004





000
SAUS44 KLIX 262052
MTRBVE
METAR KBVE 262051Z AUTO 35008G15KT 330V030 10SM OVC017 08/03 A3007
RMK AO2 SLP182 T00780033 50004





000
SAUS44 KLIX 261952
MTRBVE
METAR KBVE 261951Z AUTO 35009G15KT 10SM OVC015 07/03 A3007 RMK AO2
SLP182 T00720028





000
SAUS44 KLIX 261948
MTRBVE
SPECI KBVE 261947Z AUTO VRB06G15KT 10SM OVC015 07/03 A3007 RMK AO2





000
SAUS44 KLIX 261852
MTRBVE
METAR KBVE 261851Z AUTO 35009G19KT 10SM OVC013 07/03 A3006 RMK AO2
SLP178 T00670028





000
SAUS44 KLIX 261752
MTRBVE
METAR KBVE 261751Z AUTO 35010G16KT 10SM OVC013 06/03 A3007 RMK AO2
SLP181 T00560028 10056 20050 50008





000
SAUS44 KLIX 261652
MTRBVE
METAR KBVE 261651Z AUTO 34012G17KT 10SM OVC013 06/03 A3008 RMK AO2
SLP184 T00560028





000
SAUS44 KLIX 261552
MTRBVE
METAR KBVE 261551Z AUTO 34009KT 10SM OVC012 05/03 A3007 RMK AO2
SLP183 T00500028





000
SAUS44 KLIX 261552
MTRBVE
METAR KBVE 261551Z AUTO 34009KT 10SM OVC012 05/03 A3007 RMK AO2
SLP183 T00500028





000
SAUS44 KLIX 261452
MTRBVE
METAR KBVE 261451Z AUTO 33010KT 10SM OVC012 05/02 A3004 RMK AO2
SLP173 T00500022 53041





000
SAUS44 KLIX 261452
MTRBVE
METAR KBVE 261451Z AUTO 33010KT 10SM OVC012 05/02 A3004 RMK AO2
SLP173 T00500022 53041





000
SAUS44 KLIX 261352
MTRBVE
METAR KBVE 261351Z AUTO 34011KT 10SM OVC012 05/03 A2999 RMK AO2
SLP156 T00500028





000
SAUS44 KLIX 261352
MTRBVE
METAR KBVE 261351Z AUTO 34011KT 10SM OVC012 05/03 A2999 RMK AO2
SLP156 T00500028





000
SAUS44 KLIX 261256 COR
MTRBVE
METAR KBVE 261251Z AUTO 34010G15KT 10SM OVC011 05/03 A2996 RMK AO2
SLP144 T00500028





000
SAUS44 KLIX 261256 COR
MTRBVE
METAR KBVE 261251Z AUTO 34010G15KT 10SM OVC011 05/03 A2996 RMK AO2
SLP144 T00500028





000
SAUS44 KLIX 261253 COR
MTRBVE
METAR KBVE 261251Z AUTO 34010G15KT 10SM OVC011 05/03 A2996 RMK AO2
SLP144 T00500028





000
SAUS44 KLIX 261252
MTRBVE
METAR KBVE 261251Z AUTO 34010G15KT 10SM OVC011 05/03 A2996 RMK AO2
SLP144 T00500028





000
SAUS44 KLIX 261153 COR
MTRBVE
METAR KBVE 261151Z AUTO 35008G16KT 10SM OVC009 06/03 A2992 RMK AO2
SLP131 70078 T00560033 10072 20050 53022





000
SAUS44 KLIX 261153 COR
MTRBVE
METAR KBVE 261151Z AUTO 35008G16KT 10SM OVC009 06/03 A2992 RMK AO2
SLP131 70078 T00560033 10072 20050 53022





000
SAUS44 KLIX 261142
MTRBVE
SPECI KBVE 261141Z AUTO 34013G19KT 10SM OVC009 06/03 A2991 RMK AO2
T00560033





000
SAUS44 KLIX 261142
MTRBVE
SPECI KBVE 261141Z AUTO 34013G19KT 10SM OVC009 06/03 A2991 RMK AO2
T00560033





000
SAUS44 KLIX 261052
MTRBVE
METAR KBVE 261051Z AUTO 35011G17KT 10SM OVC010 06/04 A2989 RMK AO2
SLP120 T00560039





000
SAUS44 KLIX 261052
MTRBVE
METAR KBVE 261051Z AUTO 35011G17KT 10SM OVC010 06/04 A2989 RMK AO2
SLP120 T00560039





000
SAUS44 KLIX 260952
MTRBVE
METAR KBVE 260951Z AUTO 34016KT 10SM OVC011 06/04 A2986 RMK AO2
SLP111 T00560039





000
SAUS44 KLIX 260952
MTRBVE
METAR KBVE 260951Z AUTO 34016KT 10SM OVC011 06/04 A2986 RMK AO2
SLP111 T00560039





000
SAUS44 KLIX 260852
MTRBVE
METAR KBVE 260851Z AUTO 33014KT 10SM OVC010 06/04 A2986 RMK AO2
SLP110 T00610044 50003





000
SAUS44 KLIX 260852
MTRBVE
METAR KBVE 260851Z AUTO 33014KT 10SM OVC010 06/04 A2986 RMK AO2
SLP110 T00610044 50003





000
SAUS44 KLIX 260752
MTRBVE
METAR KBVE 260751Z AUTO 32014KT 10SM OVC010 07/04 A2986 RMK AO2
SLP112 T00670044





000
SAUS44 KLIX 260652
MTRBVE
METAR KBVE 260651Z AUTO 32011KT 10SM OVC011 07/05 A2986 RMK AO2
SLP112 T00720050





000
SAUS44 KLIX 260652
MTRBVE
METAR KBVE 260651Z AUTO 32011KT 10SM OVC011 07/05 A2986 RMK AO2
SLP112 T00720050





000
SAUS44 KLIX 260552
MTRBVE
METAR KBVE 260551Z AUTO 32008KT 10SM OVC013 07/05 A2985 RMK AO2
SLP107 T00720050 10083 20072 401440072 51016





000
SAUS44 KLIX 260552
MTRBVE
METAR KBVE 260551Z AUTO 32008KT 10SM OVC013 07/05 A2985 RMK AO2
SLP107 T00720050 10083 20072 401440072 51016





000
SAUS44 KLIX 260452
MTRBVE
METAR KBVE 260451Z AUTO 32011KT 10SM OVC011 07/05 A2984 RMK AO2
SLP105 T00720050





000
SAUS44 KLIX 260452
MTRBVE
METAR KBVE 260451Z AUTO 32011KT 10SM OVC011 07/05 A2984 RMK AO2
SLP105 T00720050





000
SAUS44 KLIX 260356 COR
MTRBVE
METAR KBVE 260351Z AUTO 31010KT 10SM OVC011 08/06 A2982 RMK AO2
SLP098 T00780056





000
SAUS44 KLIX 260353 COR
MTRBVE
METAR KBVE 260351Z AUTO 31010KT 10SM OVC011 08/06 A2982 RMK AO2
SLP098 T00780056





000
SAUS44 KLIX 260353 COR
MTRBVE
METAR KBVE 260351Z AUTO 31010KT 10SM OVC011 08/06 A2982 RMK AO2
SLP098 T00780056





000
SAUS44 KLIX 260252
MTRBVE
METAR KBVE 260251Z AUTO 32013G18KT 10SM OVC012 08/06 A2980 RMK AO2
SLP091 T00780061 51036





000
SAUS44 KLIX 260252
MTRBVE
METAR KBVE 260251Z AUTO 32013G18KT 10SM OVC012 08/06 A2980 RMK AO2
SLP091 T00780061 51036





000
SAUS44 KLIX 260154 COR
MTRBVE
METAR KBVE 260151Z AUTO 32015G25KT 10SM OVC013 08/06 A2977 RMK AO2
SLP081 T00830061





000
SAUS44 KLIX 260154 COR
MTRBVE
METAR KBVE 260151Z AUTO 32015G25KT 10SM OVC013 08/06 A2977 RMK AO2
SLP081 T00830061





000
SAUS44 KLIX 260153 COR
MTRBVE
METAR KBVE 260151Z AUTO 32015G25KT 10SM OVC013 08/06 A2977 RMK AO2
SLP081 T00830061





000
SAUS44 KLIX 260153 COR
MTRBVE
METAR KBVE 260151Z AUTO 32015G25KT 10SM OVC013 08/06 A2977 RMK AO2
SLP081 T00830061





000
SAUS44 KLIX 260137
MTRBVE
SPECI KBVE 260135Z AUTO 31012G20KT 10SM BKN011 OVC017 08/06 A2977
RMK AO2 T00830061





000
SAUS44 KLIX 260137
MTRBVE
SPECI KBVE 260135Z AUTO 31012G20KT 10SM BKN011 OVC017 08/06 A2977
RMK AO2 T00830061





000
SAUS44 KLIX 260053
MTRBVE
METAR KBVE 260051Z AUTO 32012G21KT 10SM OVC009 08/07 A2973 RMK AO2
SLP066 T00830067





000
SAUS44 KLIX 260053
MTRBVE
METAR KBVE 260051Z AUTO 32012G21KT 10SM OVC009 08/07 A2973 RMK AO2
SLP066 T00830067





000
SAUS44 KLIX 252357 COR
MTRBVE
METAR KBVE 252351Z AUTO 32017G23KT 10SM BKN008 OVC023 08/07 A2969
RMK AO2 PK WND 32033/2301 CIG 007V011 SLP055 60045 T00780067 10144
20078 53030





000
SAUS44 KLIX 252357 COR
MTRBVE
METAR KBVE 252351Z AUTO 32017G23KT 10SM BKN008 OVC023 08/07 A2969
RMK AO2 PK WND 32033/2301 CIG 007V011 SLP055 60045 T00780067 10144
20078 53030





000
SAUS44 KLIX 252353 COR
MTRBVE
METAR KBVE 252351Z AUTO 32017G23KT 10SM BKN008 OVC023 08/07 A2969
RMK AO2 PK WND 32033/2301 CIG 007V011 SLP055 60045 T00780067 10144
20078 53030





000
SAUS44 KLIX 252353 COR
MTRBVE
METAR KBVE 252351Z AUTO 32017G23KT 10SM BKN008 OVC023 08/07 A2969
RMK AO2 PK WND 32033/2301 CIG 007V011 SLP055 60045 T00780067 10144
20078 53030





000
SAUS44 KLIX 252252
MTRBVE
METAR KBVE 252251Z AUTO 32020G30KT 10SM OVC004 09/08 A2966 RMK AO2
PK WND 33030/2250 PRESRR SLP044 T00940083





000
SAUS44 KLIX 252252
MTRBVE
METAR KBVE 252251Z AUTO 32020G30KT 10SM OVC004 09/08 A2966 RMK AO2
PK WND 33030/2250 PRESRR SLP044 T00940083





000
SAUS44 KLIX 252214 COR
MTRBVE
SPECI KBVE 252208Z AUTO 33017G22KT 6SM BR BKN004 BKN013 OVC020 12/11
A2962 RMK AO2 CIG 003V008 T01170106





000
SAUS44 KLIX 252214 COR
MTRBVE
SPECI KBVE 252208Z AUTO 33017G22KT 6SM BR BKN004 BKN013 OVC020 12/11
A2962 RMK AO2 CIG 003V008 T01170106





000
SAUS44 KLIX 252210 COR
MTRBVE
SPECI KBVE 252208Z AUTO 33017G22KT 6SM BR BKN004 BKN013 OVC020 12/11
A2962 RMK AO2 CIG 003V008 T01170106





000
SAUS44 KLIX 252210 COR
MTRBVE
SPECI KBVE 252208Z AUTO 33017G22KT 6SM BR BKN004 BKN013 OVC020 12/11
A2962 RMK AO2 CIG 003V008 T01170106





000
SAUS44 KLIX 252201
MTRBVE
SPECI KBVE 252159Z AUTO 32017G22KT 7SM BKN005 BKN012 OVC019 12/11
A2962 RMK AO2 T01220111





000
SAUS44 KLIX 252201
MTRBVE
SPECI KBVE 252159Z AUTO 32017G22KT 7SM BKN005 BKN012 OVC019 12/11
A2962 RMK AO2 T01220111





000
SAUS44 KLIX 252152
MTRBVE
METAR KBVE 252151Z AUTO 10SM FEW005 BKN020 OVC070 14/13 A2961 RMK
AO2 RAB29E44 SLP025 P0000 T01390128





000
SAUS44 KLIX 252135
MTRBVE
SPECI KBVE 252133Z AUTO 12003KT 8SM -RA SCT019 OVC070 13/12 A2959
RMK AO2 RAB29 P0000 T01280122





000
SAUS44 KLIX 252135
MTRBVE
SPECI KBVE 252133Z AUTO 12003KT 8SM -RA SCT019 OVC070 13/12 A2959
RMK AO2 RAB29 P0000 T01280122





000
SAUS44 KLIX 252052
MTRBVE
METAR KBVE 252051Z AUTO 11007KT 9SM SCT019 BKN029 OVC041 12/12 A2960
RMK AO2 SLP024 60045 T01220117 56046





000
SAUS44 KLIX 252012
MTRBVE
SPECI KBVE 252011Z AUTO 08010KT 9SM BKN027 BKN080 12/11 A2963 RMK
AO2 T01170106





000
SAUS44 KLIX 252012
MTRBVE
SPECI KBVE 252011Z AUTO 08010KT 9SM BKN027 BKN080 12/11 A2963 RMK
AO2 T01170106





000
SAUS44 KLIX 251953
MTRBVE
METAR KBVE 251951Z AUTO 07010KT 10SM FEW003 SCT026 OVC080 11/11
A2964 RMK AO2 RAE30 SLP035 P0015 T01110106





000
SAUS44 KLIX 251944
MTRBVE
SPECI KBVE 251943Z AUTO 07012KT 9SM SCT003 BKN024 OVC085 11/11 A2964
RMK AO2 RAE30 P0015 T01110106





000
SAUS44 KLIX 251932 COR
MTRBVE
SPECI KBVE 251925Z AUTO 05013G18KT 3SM -RA BR BKN003 BKN025 OVC055
11/11 A2964 RMK AO2 P0015 T01060106





000
SAUS44 KLIX 251932 COR
MTRBVE
SPECI KBVE 251925Z AUTO 05013G18KT 3SM -RA BR BKN003 BKN025 OVC055
11/11 A2964 RMK AO2 P0015 T01060106





000
SAUS44 KLIX 251930 COR
MTRBVE
SPECI KBVE 251925Z AUTO 05013G18KT 3SM -RA BR BKN003 BKN025 OVC055
11/11 A2964 RMK AO2 P0015 T01060106





000
SAUS44 KLIX 251927 COR
MTRBVE
SPECI KBVE 251925Z AUTO 05013G18KT 3SM -RA BR BKN003 BKN025 OVC055
11/11 A2964 RMK AO2 P0015 T01060106





000
SAUS44 KLIX 251905
MTRBVE
SPECI KBVE 251904Z AUTO 04009G16KT 2SM -RA BR SCT003 BKN017 OVC050
11/11 A2968 RMK AO2 P0011 T01060106





000
SAUS44 KLIX 251853 COR
MTRBVE
METAR KBVE 251851Z AUTO 01008KT 1SM +RA BR BKN003 BKN015 OVC020
11/11 A2971 RMK AO2 SLP058 P0030 T01060106





000
SAUS44 KLIX 251852
MTRBVE
METAR KBVE 251851Z AUTO 01008KT 1SM +RA BR BKN003 BKN015 OVC020
11/11 A2971 RMK AO2 SLP058 P0030 T01060106





000
SAUS44 KLIX 251843
MTRBVE
SPECI KBVE 251841Z AUTO 03008KT 1 3/4SM -RA BR BKN003 BKN023 OVC034
11/10 A2970 RMK AO2 P0027 T01060100





000
SAUS44 KLIX 251834
MTRBVE
SPECI KBVE 251833Z AUTO 04010G17KT 2 1/2SM -RA BR SCT004 BKN027
OVC033 11/11 A2969 RMK AO2 PRESFR P0026 T01060106





000
SAUS44 KLIX 251821 COR
MTRBVE
SPECI KBVE 251816Z AUTO 04009KT 1 1/4SM +RA BR FEW004 BKN032 OVC046
11/10 A2972 RMK AO2 P0014 T01060100





000
SAUS44 KLIX 251819 COR
MTRBVE
SPECI KBVE 251816Z AUTO 04009KT 1 1/4SM +RA BR FEW004 BKN032 OVC046
11/10 A2972 RMK AO2 P0014 T01060100





000
SAUS44 KLIX 251818 COR
MTRBVE
SPECI KBVE 251816Z AUTO 04009KT 1 1/4SM +RA BR FEW004 BKN032 OVC046
11/10 A2972 RMK AO2 P0014 T01060100





000
SAUS44 KLIX 251817
MTRBVE
SPECI KBVE 251816Z AUTO 04009KT 1 1/4SM +RA BR FEW004 BKN032 OVC046
11/10 A2972 RMK AO2 P0014 T01060100





000
SAUS44 KLIX 251817
MTRBVE
SPECI KBVE 251816Z AUTO 04009KT 1 1/4SM +RA BR FEW004 BKN032 OVC046
11/10 A2972 RMK AO2 P0014 T01060100





000
SAUS44 KLIX 251810
MTRBVE
SPECI KBVE 251809Z AUTO 04012G19KT 2SM RA BR FEW004 BKN036 OVC046
11/10 A2972 RMK AO2 P0006 T01060100





000
SAUS44 KLIX 251805 COR
MTRBVE
SPECI KBVE 251758Z AUTO 04011G20KT 1 3/4SM RA BR SCT004 BKN037
OVC046 10/10 A2973 RMK AO2 PRESFR P0003 T01000100





000
SAUS44 KLIX 251802 COR
MTRBVE
SPECI KBVE 251758Z AUTO 04011G20KT 1 3/4SM RA BR SCT004 BKN037
OVC046 10/10 A2973 RMK AO2 PRESFR P0003 T01000100





000
SAUS44 KLIX 251801 COR
MTRBVE
SPECI KBVE 251758Z AUTO 04011G20KT 1 3/4SM RA BR SCT004 BKN037
OVC046 10/10 A2973 RMK AO2 PRESFR P0003 T01000100





000
SAUS44 KLIX 251752
MTRBVE
METAR KBVE 251751Z AUTO 03012G17KT 2SM RA BR SCT004 BKN037 OVC046
11/10 A2974 RMK AO2 PRESFR SLP071 P0009 60033 T01060100 10117 20089
58031





000
SAUS44 KLIX 251752
MTRBVE
METAR KBVE 251751Z AUTO 03012G17KT 2SM RA BR SCT004 BKN037 OVC046
11/10 A2974 RMK AO2 PRESFR SLP071 P0009 60033 T01060100 10117 20089
58031





000
SAUS44 KLIX 251738 COR
MTRBVE
SPECI KBVE 251734Z AUTO 03012G19KT 3SM -RA BR FEW005 SCT030 OVC044
11/10 A2976 RMK AO2 PRESFR P0007 T01060100





000
SAUS44 KLIX 251738 COR
MTRBVE
SPECI KBVE 251734Z AUTO 03012G19KT 3SM -RA BR FEW005 SCT030 OVC044
11/10 A2976 RMK AO2 PRESFR P0007 T01060100





000
SAUS44 KLIX 251737 COR
MTRBVE
SPECI KBVE 251734Z AUTO 03012G19KT 3SM -RA BR FEW005 SCT030 OVC044
11/10 A2976 RMK AO2 PRESFR P0007 T01060100





000
SAUS44 KLIX 251727
MTRBVE
SPECI KBVE 251726Z AUTO 02010G18KT 2SM RA BR SCT004 BKN029 OVC047
10/09 A2978 RMK AO2 PRESFR P0006 T01000094





000
SAUS44 KLIX 251723 COR
MTRBVE
SPECI KBVE 251719Z AUTO 01011G19KT 1 3/4SM RA BR BKN004 BKN025
OVC044 11/10 A2978 RMK AO2 P0005 T01060100





000
SAUS44 KLIX 251723 COR
MTRBVE
SPECI KBVE 251719Z AUTO 01011G19KT 1 3/4SM RA BR BKN004 BKN025
OVC044 11/10 A2978 RMK AO2 P0005 T01060100





000
SAUS44 KLIX 251721 COR
MTRBVE
SPECI KBVE 251719Z AUTO 01011G19KT 1 3/4SM RA BR BKN004 BKN025
OVC044 11/10 A2978 RMK AO2 P0005 T01060100





000
SAUS44 KLIX 251713
MTRBVE
SPECI KBVE 251712Z AUTO 01011G18KT 3SM -RA BR BKN004 OVC013 11/10
A2979 RMK AO2 PRESFR P0003 T01060100





000
SAUS44 KLIX 251713
MTRBVE
SPECI KBVE 251712Z AUTO 01011G18KT 3SM -RA BR BKN004 OVC013 11/10
A2979 RMK AO2 PRESFR P0003 T01060100





000
SAUS44 KLIX 251652
MTRBVE
METAR KBVE 251651Z AUTO 35008KT 2 1/2SM RA BR OVC004 11/11 A2982 RMK
AO2 RAB06 CIG 003V008 SLP099 P0018 T01110106





000
SAUS44 KLIX 251652
MTRBVE
METAR KBVE 251651Z AUTO 35008KT 2 1/2SM RA BR OVC004 11/11 A2982 RMK
AO2 RAB06 CIG 003V008 SLP099 P0018 T01110106





000
SAUS44 KLIX 251634
MTRBVE
SPECI KBVE 251633Z AUTO 36007KT 1 3/4SM RA BR OVC003 11/11 A2983 RMK
AO2 RAB06 P0014 T01110106





000
SAUS44 KLIX 251552
MTRBVE
METAR KBVE 251551Z AUTO 07010KT 2 1/2SM BR OVC005 12/11 A2982 RMK
AO2 RAE22 SLP096 P0000 T01170111





000
SAUS44 KLIX 251534
MTRBVE
SPECI KBVE 251532Z AUTO 07012KT 2SM BR OVC005 12/11 A2982 RMK AO2
RAE22 P0000 T01170111





000
SAUS44 KLIX 251356 COR
MTRBVE
METAR KBVE 251351Z AUTO 05010KT 6SM -RA BR OVC007 10/09 A2988 RMK
AO2 SLP116 P0002 T01000094





000
SAUS44 KLIX 251356 COR
MTRBVE
METAR KBVE 251351Z AUTO 05010KT 6SM -RA BR OVC007 10/09 A2988 RMK
AO2 SLP116 P0002 T01000094





000
SAUS44 KLIX 251353 COR
MTRBVE
METAR KBVE 251351Z AUTO 05010KT 6SM -RA BR OVC007 10/09 A2988 RMK
AO2 SLP116 P0002 T01000094





000
SAUS44 KLIX 251353 COR
MTRBVE
METAR KBVE 251351Z AUTO 05010KT 6SM -RA BR OVC007 10/09 A2988 RMK
AO2 SLP116 P0002 T01000094





000
SAUS44 KLIX 251327
MTRBVE
SPECI KBVE 251326Z AUTO 05009G15KT 5SM -RA BR OVC006 10/09 A2988 RMK
AO2 CIG 004V010 P0001 T01000094





000
SAUS44 KLIX 251327
MTRBVE
SPECI KBVE 251326Z AUTO 05009G15KT 5SM -RA BR OVC006 10/09 A2988 RMK
AO2 CIG 004V010 P0001 T01000094





000
SAUS44 KLIX 251310
MTRBVE
SPECI KBVE 251309Z AUTO 04009KT 3SM -RA BR OVC004 10/09 A2988 RMK
AO2 P0001 T01000094





000
SAUS44 KLIX 251310
MTRBVE
SPECI KBVE 251309Z AUTO 04009KT 3SM -RA BR OVC004 10/09 A2988 RMK
AO2 P0001 T01000094





000
SAUS44 KLIX 251303
MTRBVE
SPECI KBVE 251301Z AUTO 05009G15KT 2SM -RA BR OVC005 10/09 A2988 RMK
AO2 P0001 T01000089





000
SAUS44 KLIX 251252
MTRBVE
METAR KBVE 251251Z AUTO 04009KT 4SM -RA BR OVC005 10/09 A2988 RMK
AO2 SLP118 P0002 T01000089





000
SAUS44 KLIX 251252
MTRBVE
METAR KBVE 251251Z AUTO 04009KT 4SM -RA BR OVC005 10/09 A2988 RMK
AO2 SLP118 P0002 T01000089





000
SAUS44 KLIX 251154 COR
MTRBVE
METAR KBVE 251151Z AUTO 04009KT 4SM -RA BR OVC005 09/08 A2991 RMK
AO2 RAB06 SLP128 P0007 60013 70013 T00890083 10094 20089 56009





000
SAUS44 KLIX 251154 COR
MTRBVE
METAR KBVE 251151Z AUTO 04009KT 4SM -RA BR OVC005 09/08 A2991 RMK
AO2 RAB06 SLP128 P0007 60013 70013 T00890083 10094 20089 56009





000
SAUS44 KLIX 251153 COR
MTRBVE
METAR KBVE 251151Z AUTO 04009KT 4SM -RA BR OVC005 09/08 A2991 RMK
AO2 RAB06 SLP128 P0007 60013 70013 T00890083 10094 20089 56009





000
SAUS44 KLIX 251152 COR
MTRBVE
METAR KBVE 251151Z AUTO 04009KT 4SM -RA BR OVC005 09/08 A2991 RMK
AO2 RAB06 SLP128 P0007 60013 70013 T00890083 10094 20089 56009





000
SAUS44 KLIX 251152 COR
MTRBVE
METAR KBVE 251151Z AUTO 04009KT 4SM -RA BR OVC005 09/08 A2991 RMK
AO2 RAB06 SLP128 P0007 60013 70013 T00890083 10094 20089 56009





000
SAUS44 KLIX 251151 COR
MTRBVE
SPECI KBVE 251147Z AUTO 04008KT 4SM -RA BR OVC005 09/08 A2991 RMK
AO2 RAB06 P0007





000
SAUS44 KLIX 251151 COR
MTRBVE
SPECI KBVE 251147Z AUTO 04008KT 4SM -RA BR OVC005 09/08 A2991 RMK
AO2 RAB06 P0007





000
SAUS44 KLIX 251150 COR
MTRBVE
SPECI KBVE 251147Z AUTO 04008KT 4SM -RA BR OVC005 09/08 A2991 RMK
AO2 RAB06 P0007





000
SAUS44 KLIX 251150 COR
MTRBVE
SPECI KBVE 251147Z AUTO 04008KT 4SM -RA BR OVC005 09/08 A2991 RMK
AO2 RAB06 P0007





000
SAUS44 KLIX 251149
MTRBVE
SPECI KBVE 251147Z AUTO 04008KT 4SM -RA BR OVC005 09/08 A2991 RMK
AO2 RAB06 P0007





000
SAUS44 KLIX 251149
MTRBVE
SPECI KBVE 251147Z AUTO 04008KT 4SM -RA BR OVC005 09/08 A2991 RMK
AO2 RAB06 P0007





000
SAUS44 KLIX 251125
MTRBVE
SPECI KBVE 251123Z AUTO 03008KT 2SM RA BR OVC006 09/08 A2992 RMK AO2
RAB06 P0003 T00890083





000
SAUS44 KLIX 251052
MTRBVE
METAR KBVE 251051Z AUTO 03008KT 6SM BR OVC007 09/08 A2992 RMK AO2
RAE45 SLP130 P0005 T00890078





000
SAUS44 KLIX 251052
MTRBVE
METAR KBVE 251051Z AUTO 03008KT 6SM BR OVC007 09/08 A2992 RMK AO2
RAE45 SLP130 P0005 T00890078





000
SAUS44 KLIX 251041
MTRBVE
SPECI KBVE 251040Z AUTO 03007KT 5SM -RA BR BKN007 OVC018 09/08 A2992
RMK AO2 P0005 T00890078





000
SAUS44 KLIX 251041
MTRBVE
SPECI KBVE 251040Z AUTO 03007KT 5SM -RA BR BKN007 OVC018 09/08 A2992
RMK AO2 P0005 T00890078





000
SAUS44 KLIX 251021
MTRBVE
SPECI KBVE 251020Z AUTO 03007KT 3SM -RA BR FEW007 OVC019 09/08 A2992
RMK AO2 P0004 T00890078





000
SAUS44 KLIX 251011
MTRBVE
SPECI KBVE 251010Z AUTO 04007KT 2 1/2SM -RA BR FEW010 OVC016 09/08
A2992 RMK AO2 P0004 T00890078





000
SAUS44 KLIX 251004
MTRBVE
SPECI KBVE 251003Z AUTO 03006KT 2SM RA BR FEW006 OVC014 09/08 A2993
RMK AO2 P0002 T00890078





000
SAUS44 KLIX 250952
MTRBVE
METAR KBVE 250951Z AUTO 03006KT 4SM -RA BR FEW007 OVC012 09/08 A2994
RMK AO2 RAE13B32 SLP137 P0000 T00890078





000
SAUS44 KLIX 250937
MTRBVE
SPECI KBVE 250934Z AUTO 05006KT 7SM -RA FEW008 BKN012 OVC037 09/08
A2993 RMK AO2 RAE13B32 P0000 T00890078





000
SAUS44 KLIX 250927
MTRBVE
SPECI KBVE 250925Z AUTO 04005KT 7SM FEW008 BKN038 OVC046 09/08 A2994
RMK AO2 RAE13 P0000 T00890078





000
SAUS44 KLIX 250903
MTRBVE
SPECI KBVE 250902Z AUTO 04008KT 5SM -RA BR SCT008 BKN013 OVC037
09/07 A2993 RMK AO2 P0000 T00890072





000
SAUS44 KLIX 250856 COR
MTRBVE
METAR KBVE 250851Z AUTO 04007KT 4SM -RA BR SCT008 BKN037 OVC055
09/07 A2994 RMK AO2 RAB29 SLP138 P0001 60001 T00890072 58021





000
SAUS44 KLIX 250853 COR
MTRBVE
METAR KBVE 250851Z AUTO 04007KT 4SM -RA BR SCT008 BKN037 OVC055
09/07 A2994 RMK AO2 RAB29 SLP138 P0001 60001 T00890072 58021





000
SAUS44 KLIX 250852
MTRBVE
METAR KBVE 250851Z AUTO 04007KT 4SM -RA BR SCT008 BKN037 OVC055
09/07 A2994 RMK AO2 RAB29 SLP138 P0001 60001 T00890072 58021





000
SAUS44 KLIX 250752
MTRBVE
METAR KBVE 250751Z AUTO 02006KT 10SM OVC041 09/07 A2998 RMK AO2
SLP150 T00940072





000
SAUS44 KLIX 250652
MTRBVE
METAR KBVE 250651Z AUTO VRB04KT 10SM FEW031 OVC045 09/07 A3000 RMK
AO2 RAB33E48 SLP159 P0000 T00940067





000
SAUS44 KLIX 250556 COR
MTRBVE
METAR KBVE 250551Z AUTO 04004KT 10SM SCT017 OVC049 09/06 A3000 RMK
AO2 SLP159 T00940061 10094 20083 401000072 56018





000
SAUS44 KLIX 250553 COR
MTRBVE
METAR KBVE 250551Z AUTO 04004KT 10SM SCT017 OVC049 09/06 A3000 RMK
AO2 SLP159 T00940061 10094 20083 401000072 56018





000
SAUS44 KLIX 250452
MTRBVE
METAR KBVE 250451Z AUTO 00000KT 10SM OVC017 09/06 A3002 RMK AO2
SLP166 T00940061





000
SAUS44 KLIX 250352
MTRBVE
METAR KBVE 250351Z AUTO 03003KT 10SM OVC019 09/06 A3003 RMK AO2
SLP169 T00940061





000
SAUS44 KLIX 250352
MTRBVE
METAR KBVE 250351Z AUTO 03003KT 10SM OVC019 09/06 A3003 RMK AO2
SLP169 T00940061





000
SAUS44 KLIX 250252
MTRBVE
METAR KBVE 250251Z AUTO 04003KT 10SM BKN017 OVC023 09/06 A3006 RMK
AO2 SLP177 T00940056 55001





000
SAUS44 KLIX 250252
MTRBVE
METAR KBVE 250251Z AUTO 04003KT 10SM BKN017 OVC023 09/06 A3006 RMK
AO2 SLP177 T00940056 55001





000
SAUS44 KLIX 250230
MTRBVE
SPECI KBVE 250229Z AUTO 04003KT 10SM BKN023 OVC085 09/06 A3007 RMK
AO2 T00890056





000
SAUS44 KLIX 250230
MTRBVE
SPECI KBVE 250229Z AUTO 04003KT 10SM BKN023 OVC085 09/06 A3007 RMK
AO2 T00890056





000
SAUS44 KLIX 250152
MTRBVE
METAR KBVE 250151Z AUTO 03005KT 10SM BKN080 09/06 A3005 RMK AO2
SLP175 T00890056





000
SAUS44 KLIX 250052
MTRBVE
METAR KBVE 250051Z AUTO 03006KT 10SM OVC070 09/06 A3005 RMK AO2
SLP175 T00890056





000
SAUS44 KLIX 242352
MTRBVE
METAR KBVE 242351Z AUTO 02006KT 10SM CLR 09/05 A3006 RMK AO2 SLP179
T00890050 10100 20083 56005





000
SAUS44 KLIX 242338
MTRBVE
SPECI KBVE 242336Z AUTO 36005KT 10SM SCT024 09/05 A3007 RMK AO2
T00890050





000
SAUS44 KLIX 242252
MTRBVE
METAR KBVE 242251Z AUTO 03006KT 10SM OVC024 09/05 A3007 RMK AO2
SLP181 T00940050





000
SAUS44 KLIX 242208
MTRBVE
SPECI KBVE 242207Z AUTO 03008KT 10SM SCT015 BKN025 09/05 A3006 RMK
AO2 T00940050





000
SAUS44 KLIX 242152
MTRBVE
METAR KBVE 242151Z AUTO 04006KT 10SM SCT014 09/06 A3006 RMK AO2
SLP180 T00940056





000
SAUS44 KLIX 242131
MTRBVE
SPECI KBVE 242129Z AUTO 04007G15KT 10SM SCT015 SCT044 09/05 A3007
RMK AO2 T00940050





000
SAUS44 KLIX 242115
MTRBVE
SPECI KBVE 242114Z AUTO 04008KT 10SM BKN015 BKN044 10/06 A3007 RMK
AO2 T01000056





000
SAUS44 KLIX 242108 COR
MTRBVE
SPECI KBVE 242104Z AUTO 03007KT 10SM OVC014 10/06 A3008 RMK AO2
T01000056





000
SAUS44 KLIX 242106 COR
MTRBVE
SPECI KBVE 242104Z AUTO 03007KT 10SM OVC014 10/06 A3008 RMK AO2
T01000056





000
SAUS44 KLIX 242052
MTRBVE
METAR KBVE 242051Z AUTO 03007KT 10SM BKN016 09/06 A3008 RMK AO2
SLP184 T00940056 58023





000
SAUS44 KLIX 241952
MTRBVE
METAR KBVE 241951Z AUTO VRB06KT 10SM OVC015 09/05 A3011 RMK AO2
SLP196 T00890050





000
SAUS44 KLIX 241952
MTRBVE
METAR KBVE 241951Z AUTO VRB06KT 10SM OVC015 09/05 A3011 RMK AO2
SLP196 T00890050





000
SAUS44 KLIX 241950
MTRBVE
SPECI KBVE 241949Z AUTO 01006KT 10SM OVC015 09/05 A3011 RMK AO2





000
SAUS44 KLIX 241950
MTRBVE
SPECI KBVE 241949Z AUTO 01006KT 10SM OVC015 09/05 A3011 RMK AO2





000
SAUS44 KLIX 241852
MTRBVE
METAR KBVE 241851Z AUTO 35007KT 10SM OVC013 08/05 A3014 RMK AO2
SLP207 T00830050





000
SAUS44 KLIX 241807
MTRBVE
SPECI KBVE 241806Z AUTO 35007KT 9SM BKN013 OVC022 09/05 A3016 RMK
AO2 T00890050





000
SAUS44 KLIX 241807
MTRBVE
SPECI KBVE 241806Z AUTO 35007KT 9SM BKN013 OVC022 09/05 A3016 RMK
AO2 T00890050





000
SAUS44 KLIX 241753 COR
MTRBVE
METAR KBVE 241751Z AUTO 01006KT 9SM SCT012 OVC022 09/05 A3016 RMK
AO2 SLP214 T00890050 10089 20072 58013





000
SAUS44 KLIX 241752
MTRBVE
METAR KBVE 241751Z AUTO 01006KT 9SM SCT012 OVC022 09/05 A3016 RMK
AO2 SLP214 T00890050 10089 20072 58013





000
SAUS44 KLIX 241742 COR
MTRBVE
SPECI KBVE 241738Z AUTO 36008KT 9SM SCT012 OVC022 09/05 A3016 RMK
AO2 T00890050





000
SAUS44 KLIX 241741 COR
MTRBVE
SPECI KBVE 241738Z AUTO 36008KT 9SM SCT012 OVC022 09/05 A3016 RMK
AO2 T00890050





000
SAUS44 KLIX 241740
MTRBVE
SPECI KBVE 241738Z AUTO 36008KT 9SM SCT012 OVC022 09/05 A3016 RMK
AO2 T00890050





000
SAUS44 KLIX 241731
MTRBVE
SPECI KBVE 241730Z AUTO 01008KT 9SM BKN012 OVC021 09/05 A3016 RMK
AO2 T00890050





000
SAUS44 KLIX 241652
MTRBVE
METAR KBVE 241651Z AUTO VRB06KT 8SM BKN011 OVC020 08/05 A3018 RMK
AO2 SLP220 T00830050





000
SAUS44 KLIX 241619
MTRBVE
SPECI KBVE 241617Z AUTO 35007KT 8SM OVC009 07/05 A3019 RMK AO2 CIG
008V012 T00720050





000
SAUS44 KLIX 241619
MTRBVE
SPECI KBVE 241617Z AUTO 35007KT 8SM OVC009 07/05 A3019 RMK AO2 CIG
008V012 T00720050





000
SAUS44 KLIX 241554 COR
MTRBVE
METAR KBVE 241551Z AUTO 35011G16KT 7SM OVC011 07/05 A3020 RMK AO2
SLP224 T00720050





000
SAUS44 KLIX 241554 COR
MTRBVE
METAR KBVE 241551Z AUTO 35011G16KT 7SM OVC011 07/05 A3020 RMK AO2
SLP224 T00720050





000
SAUS44 KLIX 241553 COR
MTRBVE
METAR KBVE 241551Z AUTO 35011G16KT 7SM OVC011 07/05 A3020 RMK AO2
SLP224 T00720050





000
SAUS44 KLIX 241553 COR
MTRBVE
METAR KBVE 241551Z AUTO 35011G16KT 7SM OVC011 07/05 A3020 RMK AO2
SLP224 T00720050





000
SAUS44 KLIX 241452
MTRBVE
METAR KBVE 241451Z AUTO 34009KT 7SM OVC012 07/04 A3020 RMK AO2
SLP227 T00720044 53009





000
SAUS44 KLIX 241352
MTRBVE
METAR KBVE 241351Z AUTO 35009G15KT 6SM BR OVC011 07/05 A3018 RMK AO2
SLP219 T00720050





000
SAUS44 KLIX 241253
MTRBVE
METAR KBVE 241251Z AUTO VRB06KT 6SM BR OVC012 07/05 A3016 RMK AO2
SLP214 T00720050





000
SAUS44 KLIX 241152
MTRBVE
METAR KBVE 241151Z AUTO 35005KT 6SM HZ OVC014 08/05 A3017 RMK AO2
SLP217 70003 T00780050 10089 20078 53002





000
SAUS44 KLIX 241052
MTRBVE
METAR KBVE 241051Z AUTO VRB05KT 7SM BKN015 OVC021 08/05 A3016 RMK
AO2 SLP213 T00830050





000
SAUS44 KLIX 240953
MTRBVE
METAR KBVE 240951Z AUTO 35006KT 7SM OVC017 08/05 A3017 RMK AO2
SLP215 T00830050





000
SAUS44 KLIX 240852
MTRBVE
METAR KBVE 240851Z AUTO VRB05KT 7SM OVC016 08/06 A3017 RMK AO2
SLP215 T00830056 58014





000
SAUS44 KLIX 240821
MTRBVE
SPECI KBVE 240820Z AUTO 35006KT 7SM OVC015 08/06 A3018 RMK AO2
T00830056





000
SAUS44 KLIX 240811
MTRBVE
SPECI KBVE 240810Z AUTO 35006KT 7SM BKN013 OVC021 08/06 A3018 RMK
AO2 T00830061





000
SAUS44 KLIX 240801
MTRBVE
SPECI KBVE 240759Z AUTO 36006KT 7SM BKN015 OVC021 08/06 A3019 RMK
AO2 T00830061





000
SAUS44 KLIX 240752
MTRBVE
METAR KBVE 240751Z AUTO VRB04KT 7SM BKN013 OVC021 08/06 A3019 RMK
AO2 SLP223 T00830061





    US Dept of Commerce
    National Oceanic and Atmospheric Administration
    National Weather Service
    1325 East West Highway
    Silver Spring, MD 20910
    Page Author: NWS Internet Services Team
Disclaimer
Information Quality
Credits
Glossary
Privacy Policy
Freedom of Information Act (FOIA)
About Us
Career Opportunities